sensor_id;sensor_type;location;lat;lon;timestamp;temperature;humidity
78896;HTU21D;68284;59.124;37.910;2023-11-19T00:02:10;-4.81;77.85
78896;HTU21D;68284;59.124;37.910;2023-11-19T00:04:37;-4.82;77.58
78896;HTU21D;68284;59.124;37.910;2023-11-19T00:07:06;-4.85;77.44
78896;HTU21D;68284;59.124;37.910;2023-11-19T00:09:35;-4.88;77.51
78896;HTU21D;68284;59.124;37.910;2023-11-19T00:12:06;-4.93;77.56
78896;HTU21D;68284;59.124;37.910;2023-11-19T00:14:34;-4.96;77.66
78896;HTU21D;68284;59.124;37.910;2023-11-19T00:17:03;-4.98;77.82
78896;HTU21D;68284;59.124;37.910;2023-11-19T00:19:33;-5.00;77.78
78896;HTU21D;68284;59.124;37.910;2023-11-19T00:22:22;-5.02;77.72
78896;HTU21D;68284;59.124;37.910;2023-11-19T00:24:49;-5.03;77.86
78896;HTU21D;68284;59.124;37.910;2023-11-19T00:27:19;-5.00;78.01
78896;HTU21D;68284;59.124;37.910;2023-11-19T00:29:45;-4.98;77.99
78896;HTU21D;68284;59.124;37.910;2023-11-19T00:32:13;-4.97;77.95
78896;HTU21D;68284;59.124;37.910;2023-11-19T00:34:44;-4.97;77.82
78896;HTU21D;68284;59.124;37.910;2023-11-19T00:37:15;-4.98;78.02
78896;HTU21D;68284;59.124;37.910;2023-11-19T00:39:43;-4.97;77.91
78896;HTU21D;68284;59.124;37.910;2023-11-19T00:42:10;-4.97;77.94
78896;HTU21D;68284;59.124;37.910;2023-11-19T00:44:39;-4.94;78.03
78896;HTU21D;68284;59.124;37.910;2023-11-19T00:47:08;-4.91;77.98
78896;HTU21D;68284;59.124;37.910;2023-11-19T00:49:36;-4.90;77.98
78896;HTU21D;68284;59.124;37.910;2023-11-19T00:52:04;-4.87;78.03
78896;HTU21D;68284;59.124;37.910;2023-11-19T00:54:34;-4.85;77.98
78896;HTU21D;68284;59.124;37.910;2023-11-19T00:57:04;-4.80;78.06
78896;HTU21D;68284;59.124;37.910;2023-11-19T00:59:34;-4.74;78.01
78896;HTU21D;68284;59.124;37.910;2023-11-19T01:02:03;-4.65;77.85
78896;HTU21D;68284;59.124;37.910;2023-11-19T01:04:35;-4.63;77.73
78896;HTU21D;68284;59.124;37.910;2023-11-19T01:07:07;-4.59;77.60
78896;HTU21D;68284;59.124;37.910;2023-11-19T01:09:38;-4.59;77.38
78896;HTU21D;68284;59.124;37.910;2023-11-19T01:12:05;-4.63;77.30
78896;HTU21D;68284;59.124;37.910;2023-11-19T01:14:33;-4.67;77.21
78896;HTU21D;68284;59.124;37.910;2023-11-19T01:17:00;-4.72;77.41
78896;HTU21D;68284;59.124;37.910;2023-11-19T01:19:28;-4.72;77.58
78896;HTU21D;68284;59.124;37.910;2023-11-19T01:21:56;-4.72;77.61
78896;HTU21D;68284;59.124;37.910;2023-11-19T01:24:24;-4.70;77.63
78896;HTU21D;68284;59.124;37.910;2023-11-19T01:26:55;-4.67;77.72
78896;HTU21D;68284;59.124;37.910;2023-11-19T01:29:24;-4.68;77.53
78896;HTU21D;68284;59.124;37.910;2023-11-19T01:31:55;-4.67;77.57
78896;HTU21D;68284;59.124;37.910;2023-11-19T01:34:26;-4.67;77.60
78896;HTU21D;68284;59.124;37.910;2023-11-19T01:36:58;-4.66;77.51
78896;HTU21D;68284;59.124;37.910;2023-11-19T01:39:26;-4.67;77.51
78896;HTU21D;68284;59.124;37.910;2023-11-19T01:41:53;-4.67;77.60
78896;HTU21D;68284;59.124;37.910;2023-11-19T01:44:25;-4.64;77.49
78896;HTU21D;68284;59.124;37.910;2023-11-19T01:46:51;-4.64;77.32
78896;HTU21D;68284;59.124;37.910;2023-11-19T01:49:28;-4.64;77.32
78896;HTU21D;68284;59.124;37.910;2023-11-19T01:52:00;-4.63;77.32
78896;HTU21D;68284;59.124;37.910;2023-11-19T01:54:28;-4.58;77.20
78896;HTU21D;68284;59.124;37.910;2023-11-19T01:56:57;-4.55;77.27
78896;HTU21D;68284;59.124;37.910;2023-11-19T01:59:24;-4.48;77.28
78896;HTU21D;68284;59.124;37.910;2023-11-19T02:01:54;-4.42;77.15
78896;HTU21D;68284;59.124;37.910;2023-11-19T02:04:25;-4.42;76.94
78896;HTU21D;68284;59.124;37.910;2023-11-19T02:06:56;-4.43;76.96
78896;HTU21D;68284;59.124;37.910;2023-11-19T02:09:27;-4.46;76.84
78896;HTU21D;68284;59.124;37.910;2023-11-19T02:11:54;-4.51;76.91
78896;HTU21D;68284;59.124;37.910;2023-11-19T02:14:26;-4.54;77.11
78896;HTU21D;68284;59.124;37.910;2023-11-19T02:17:02;-4.54;77.23
78896;HTU21D;68284;59.124;37.910;2023-11-19T02:19:36;-4.52;77.20
78896;HTU21D;68284;59.124;37.910;2023-11-19T02:22:05;-4.54;77.11
78896;HTU21D;68284;59.124;37.910;2023-11-19T02:24:34;-4.54;77.14
78896;HTU21D;68284;59.124;37.910;2023-11-19T02:27:13;-4.51;77.09
78896;HTU21D;68284;59.124;37.910;2023-11-19T02:29:43;-4.48;77.10
78896;HTU21D;68284;59.124;37.910;2023-11-19T02:32:12;-4.45;76.82
78896;HTU21D;68284;59.124;37.910;2023-11-19T02:34:41;-4.45;76.82
78896;HTU21D;68284;59.124;37.910;2023-11-19T02:37:10;-4.46;76.82
78896;HTU21D;68284;59.124;37.910;2023-11-19T02:39:56;-4.44;76.85
78896;HTU21D;68284;59.124;37.910;2023-11-19T02:42:23;-4.41;76.87
78896;HTU21D;68284;59.124;37.910;2023-11-19T02:44:54;-4.40;76.82
78896;HTU21D;68284;59.124;37.910;2023-11-19T02:47:23;-4.37;76.46
78896;HTU21D;68284;59.124;37.910;2023-11-19T02:49:55;-4.41;76.38
78896;HTU21D;68284;59.124;37.910;2023-11-19T02:52:23;-4.48;76.14
78896;HTU21D;68284;59.124;37.910;2023-11-19T02:54:55;-4.54;76.27
78896;HTU21D;68284;59.124;37.910;2023-11-19T02:57:22;-4.56;76.51
78896;HTU21D;68284;59.124;37.910;2023-11-19T02:59:51;-4.55;76.44
78896;HTU21D;68284;59.124;37.910;2023-11-19T03:02:32;-4.54;76.39
78896;HTU21D;68284;59.124;37.910;2023-11-19T03:05:23;-4.54;76.34
78896;HTU21D;68284;59.124;37.910;2023-11-19T03:08:12;-4.51;76.33
78896;HTU21D;68284;59.124;37.910;2023-11-19T03:10:51;-4.49;76.26
78896;HTU21D;68284;59.124;37.910;2023-11-19T03:13:22;-4.44;76.12
78896;HTU21D;68284;59.124;37.910;2023-11-19T03:15:52;-4.42;76.02
78896;HTU21D;68284;59.124;37.910;2023-11-19T03:18:23;-4.38;75.92
78896;HTU21D;68284;59.124;37.910;2023-11-19T03:20:53;-4.36;75.73
78896;HTU21D;68284;59.124;37.910;2023-11-19T03:23:21;-4.36;75.67
78896;HTU21D;68284;59.124;37.910;2023-11-19T03:25:53;-4.30;75.79
78896;HTU21D;68284;59.124;37.910;2023-11-19T03:28:27;-4.25;75.63
78896;HTU21D;68284;59.124;37.910;2023-11-19T03:31:06;-4.25;75.50
78896;HTU21D;68284;59.124;37.910;2023-11-19T03:33:41;-4.26;75.41
78896;HTU21D;68284;59.124;37.910;2023-11-19T03:36:12;-4.29;75.41
78896;HTU21D;68284;59.124;37.910;2023-11-19T03:38:43;-4.28;75.46
78896;HTU21D;68284;59.124;37.910;2023-11-19T03:41:45;-4.31;75.46
78896;HTU21D;68284;59.124;37.910;2023-11-19T03:44:16;-4.29;75.56
78896;HTU21D;68284;59.124;37.910;2023-11-19T03:46:48;-4.27;75.47
78896;HTU21D;68284;59.124;37.910;2023-11-19T03:49:33;-4.26;75.23
78896;HTU21D;68284;59.124;37.910;2023-11-19T03:52:08;-4.25;75.29
78896;HTU21D;68284;59.124;37.910;2023-11-19T03:54:48;-4.24;75.22
78896;HTU21D;68284;59.124;37.910;2023-11-19T03:57:41;-4.24;75.14
78896;HTU21D;68284;59.124;37.910;2023-11-19T04:00:14;-4.25;75.08
78896;HTU21D;68284;59.124;37.910;2023-11-19T04:03:00;-4.24;75.13
78896;HTU21D;68284;59.124;37.910;2023-11-19T04:05:28;-4.25;75.16
78896;HTU21D;68284;59.124;37.910;2023-11-19T04:07:57;-4.27;74.92
78896;HTU21D;68284;59.124;37.910;2023-11-19T04:10:26;-4.31;75.12
78896;HTU21D;68284;59.124;37.910;2023-11-19T04:12:56;-4.29;75.30
78896;HTU21D;68284;59.124;37.910;2023-11-19T04:15:26;-4.29;75.28
78896;HTU21D;68284;59.124;37.910;2023-11-19T04:17:54;-4.28;75.11
78896;HTU21D;68284;59.124;37.910;2023-11-19T04:20:21;-4.27;75.19
78896;HTU21D;68284;59.124;37.910;2023-11-19T04:22:50;-4.29;75.05
78896;HTU21D;68284;59.124;37.910;2023-11-19T04:25:17;-4.29;75.12
78896;HTU21D;68284;59.124;37.910;2023-11-19T04:27:46;-4.28;75.17
78896;HTU21D;68284;59.124;37.910;2023-11-19T04:30:15;-4.26;75.12
78896;HTU21D;68284;59.124;37.910;2023-11-19T04:32:42;-4.25;75.02
78896;HTU21D;68284;59.124;37.910;2023-11-19T04:35:33;-4.23;74.99
78896;HTU21D;68284;59.124;37.910;2023-11-19T04:38:54;-4.21;74.88
78896;HTU21D;68284;59.124;37.910;2023-11-19T04:41:36;-4.00;76.50
78896;HTU21D;68284;59.124;37.910;2023-11-19T04:44:04;-3.75;76.37
78896;HTU21D;68284;59.124;37.910;2023-11-19T04:46:35;-3.61;75.68
78896;HTU21D;68284;59.124;37.910;2023-11-19T04:49:04;-3.61;75.25
78896;HTU21D;68284;59.124;37.910;2023-11-19T04:51:47;-3.66;74.75
78896;HTU21D;68284;59.124;37.910;2023-11-19T04:54:28;-3.79;74.76
78896;HTU21D;68284;59.124;37.910;2023-11-19T04:57:02;-3.89;74.83
78896;HTU21D;68284;59.124;37.910;2023-11-19T05:00:13;-3.98;74.89
78896;HTU21D;68284;59.124;37.910;2023-11-19T05:03:07;-4.08;74.90
78896;HTU21D;68284;59.124;37.910;2023-11-19T05:05:35;-4.15;75.02
78896;HTU21D;68284;59.124;37.910;2023-11-19T05:08:03;-4.19;75.16
78896;HTU21D;68284;59.124;37.910;2023-11-19T05:10:33;-4.24;75.22
78896;HTU21D;68284;59.124;37.910;2023-11-19T05:13:22;-4.26;75.35
78896;HTU21D;68284;59.124;37.910;2023-11-19T05:16:07;-4.27;75.21
78896;HTU21D;68284;59.124;37.910;2023-11-19T05:18:34;-4.30;75.18
78896;HTU21D;68284;59.124;37.910;2023-11-19T05:21:05;-4.35;75.11
78896;HTU21D;68284;59.124;37.910;2023-11-19T05:23:34;-4.39;75.15
78896;HTU21D;68284;59.124;37.910;2023-11-19T05:26:01;-4.41;74.99
78896;HTU21D;68284;59.124;37.910;2023-11-19T05:28:30;-4.45;75.05
78896;HTU21D;68284;59.124;37.910;2023-11-19T05:30:59;-4.48;75.13
78896;HTU21D;68284;59.124;37.910;2023-11-19T05:33:35;-4.46;75.24
78896;HTU21D;68284;59.124;37.910;2023-11-19T05:36:10;-4.42;75.24
78896;HTU21D;68284;59.124;37.910;2023-11-19T05:38:44;-4.42;75.09
78896;HTU21D;68284;59.124;37.910;2023-11-19T05:41:33;-4.44;75.12
78896;HTU21D;68284;59.124;37.910;2023-11-19T05:44:37;-4.44;75.21
78896;HTU21D;68284;59.124;37.910;2023-11-19T05:47:24;-4.43;75.28
78896;HTU21D;68284;59.124;37.910;2023-11-19T05:50:11;-4.40;75.24
78896;HTU21D;68284;59.124;37.910;2023-11-19T05:52:53;-4.38;75.16
78896;HTU21D;68284;59.124;37.910;2023-11-19T05:55:44;-4.37;75.14
78896;HTU21D;68284;59.124;37.910;2023-11-19T05:58:32;-4.31;75.18
78896;HTU21D;68284;59.124;37.910;2023-11-19T06:01:34;-4.30;75.09
78896;HTU21D;68284;59.124;37.910;2023-11-19T06:04:17;-4.28;75.01
78896;HTU21D;68284;59.124;37.910;2023-11-19T06:06:53;-4.30;75.05
78896;HTU21D;68284;59.124;37.910;2023-11-19T06:09:27;-4.30;75.11
78896;HTU21D;68284;59.124;37.910;2023-11-19T06:12:09;-4.29;75.12
78896;HTU21D;68284;59.124;37.910;2023-11-19T06:15:09;-4.26;75.21
78896;HTU21D;68284;59.124;37.910;2023-11-19T06:17:51;-4.22;75.11
78896;HTU21D;68284;59.124;37.910;2023-11-19T06:20:34;-4.17;75.14
78896;HTU21D;68284;59.124;37.910;2023-11-19T06:23:03;-4.13;75.04
78896;HTU21D;68284;59.124;37.910;2023-11-19T06:25:34;-4.11;75.02
78896;HTU21D;68284;59.124;37.910;2023-11-19T06:28:01;-4.09;75.08
78896;HTU21D;68284;59.124;37.910;2023-11-19T06:30:29;-4.05;75.11
78896;HTU21D;68284;59.124;37.910;2023-11-19T06:32:59;-4.00;75.11
78896;HTU21D;68284;59.124;37.910;2023-11-19T06:35:38;-3.95;75.07
78896;HTU21D;68284;59.124;37.910;2023-11-19T06:38:15;-3.95;74.80
78896;HTU21D;68284;59.124;37.910;2023-11-19T06:41:15;-3.95;74.96
78896;HTU21D;68284;59.124;37.910;2023-11-19T06:44:06;-3.90;75.00
78896;HTU21D;68284;59.124;37.910;2023-11-19T06:46:43;-3.80;73.91
78896;HTU21D;68284;59.124;37.910;2023-11-19T06:49:09;-3.83;73.70
78896;HTU21D;68284;59.124;37.910;2023-11-19T06:52:15;-3.83;74.51
78896;HTU21D;68284;59.124;37.910;2023-11-19T06:55:38;-3.78;74.29
78896;HTU21D;68284;59.124;37.910;2023-11-19T06:59:16;-3.75;73.99
78896;HTU21D;68284;59.124;37.910;2023-11-19T07:13:16;-3.71;73.38
78896;HTU21D;68284;59.124;37.910;2023-11-19T07:15:59;-3.70;73.54
78896;HTU21D;68284;59.124;37.910;2023-11-19T07:18:44;-3.69;73.65
78896;HTU21D;68284;59.124;37.910;2023-11-19T07:21:16;-3.64;73.80
78896;HTU21D;68284;59.124;37.910;2023-11-19T07:23:48;-3.56;73.73
78896;HTU21D;68284;59.124;37.910;2023-11-19T07:26:27;-3.50;73.63
78896;HTU21D;68284;59.124;37.910;2023-11-19T07:29:37;-3.47;73.53
78896;HTU21D;68284;59.124;37.910;2023-11-19T07:32:46;-3.40;73.46
78896;HTU21D;68284;59.124;37.910;2023-11-19T07:35:49;-3.37;73.32
78896;HTU21D;68284;59.124;37.910;2023-11-19T07:38:42;-3.36;73.28
78896;HTU21D;68284;59.124;37.910;2023-11-19T07:41:13;-3.35;73.01
78896;HTU21D;68284;59.124;37.910;2023-11-19T07:47:05;-3.39;72.96
78896;HTU21D;68284;59.124;37.910;2023-11-19T07:50:11;-3.43;72.85
78896;HTU21D;68284;59.124;37.910;2023-11-19T07:53:38;-3.46;72.89
78896;HTU21D;68284;59.124;37.910;2023-11-19T07:57:20;-3.47;72.76
78896;HTU21D;68284;59.124;37.910;2023-11-19T08:00:30;-3.48;72.82
78896;HTU21D;68284;59.124;37.910;2023-11-19T08:04:13;-3.47;72.63
78896;HTU21D;68284;59.124;37.910;2023-11-19T08:07:57;-3.51;72.48
78896;HTU21D;68284;59.124;37.910;2023-11-19T08:11:54;-3.56;72.62
78896;HTU21D;68284;59.124;37.910;2023-11-19T08:14:33;-3.54;72.72
78896;HTU21D;68284;59.124;37.910;2023-11-19T08:17:04;-3.49;72.59
78896;HTU21D;68284;59.124;37.910;2023-11-19T08:19:59;-3.48;72.50
78896;HTU21D;68284;59.124;37.910;2023-11-19T08:22:27;-3.46;72.54
78896;HTU21D;68284;59.124;37.910;2023-11-19T08:24:55;-3.41;72.49
78896;HTU21D;68284;59.124;37.910;2023-11-19T08:27:33;-3.36;72.51
78896;HTU21D;68284;59.124;37.910;2023-11-19T08:30:03;-3.33;72.41
78896;HTU21D;68284;59.124;37.910;2023-11-19T08:32:34;-3.26;72.47
78896;HTU21D;68284;59.124;37.910;2023-11-19T08:35:02;-3.22;72.36
78896;HTU21D;68284;59.124;37.910;2023-11-19T08:37:31;-3.17;72.31
78896;HTU21D;68284;59.124;37.910;2023-11-19T08:39:58;-3.15;72.21
78896;HTU21D;68284;59.124;37.910;2023-11-19T08:42:27;-3.10;72.35
78896;HTU21D;68284;59.124;37.910;2023-11-19T08:44:55;-3.06;72.21
78896;HTU21D;68284;59.124;37.910;2023-11-19T08:47:43;-3.02;72.10
78896;HTU21D;68284;59.124;37.910;2023-11-19T08:51:57;-2.91;71.93
78896;HTU21D;68284;59.124;37.910;2023-11-19T08:54:28;-2.87;71.95
78896;HTU21D;68284;59.124;37.910;2023-11-19T09:05:07;-2.60;71.50
78896;HTU21D;68284;59.124;37.910;2023-11-19T09:08:06;-2.51;71.53
78896;HTU21D;68284;59.124;37.910;2023-11-19T09:10:58;-2.44;71.61
78896;HTU21D;68284;59.124;37.910;2023-11-19T09:15:17;-2.30;70.84
78896;HTU21D;68284;59.124;37.910;2023-11-19T09:22:56;-2.33;70.78
78896;HTU21D;68284;59.124;37.910;2023-11-19T09:26:05;-2.33;70.44
78896;HTU21D;68284;59.124;37.910;2023-11-19T09:29:48;-2.39;70.77
78896;HTU21D;68284;59.124;37.910;2023-11-19T09:33:07;-2.34;70.86
78896;HTU21D;68284;59.124;37.910;2023-11-19T09:37:08;-2.23;70.63
78896;HTU21D;68284;59.124;37.910;2023-11-19T09:39:38;-2.16;70.68
78896;HTU21D;68284;59.124;37.910;2023-11-19T09:42:06;-1.88;70.88
78896;HTU21D;68284;59.124;37.910;2023-11-19T09:44:42;-1.74;69.71
78896;HTU21D;68284;59.124;37.910;2023-11-19T09:47:11;-1.74;69.08
78896;HTU21D;68284;59.124;37.910;2023-11-19T09:49:41;-1.77;68.32
78896;HTU21D;68284;59.124;37.910;2023-11-19T09:52:08;-1.85;67.53
78896;HTU21D;68284;59.124;37.910;2023-11-19T09:54:47;-1.91;67.67
78896;HTU21D;68284;59.124;37.910;2023-11-19T09:57:19;-2.00;67.40
78896;HTU21D;68284;59.124;37.910;2023-11-19T09:59:56;-2.10;67.20
78896;HTU21D;68284;59.124;37.910;2023-11-19T10:02:24;-2.19;67.15
78896;HTU21D;68284;59.124;37.910;2023-11-19T10:05:41;-2.24;67.56
78896;HTU21D;68284;59.124;37.910;2023-11-19T10:08:33;-2.23;68.05
78896;HTU21D;68284;59.124;37.910;2023-11-19T10:11:28;-2.19;68.11
78896;HTU21D;68284;59.124;37.910;2023-11-19T10:15:06;-2.13;68.01
78896;HTU21D;68284;59.124;37.910;2023-11-19T10:22:09;-2.05;67.89
78896;HTU21D;68284;59.124;37.910;2023-11-19T10:24:39;-1.99;67.84
78896;HTU21D;68284;59.124;37.910;2023-11-19T10:27:56;-1.91;67.93
78896;HTU21D;68284;59.124;37.910;2023-11-19T10:31:00;-1.85;67.75
78896;HTU21D;68284;59.124;37.910;2023-11-19T10:33:29;-1.79;67.81
78896;HTU21D;68284;59.124;37.910;2023-11-19T10:35:58;-1.73;67.66
78896;HTU21D;68284;59.124;37.910;2023-11-19T10:38:33;-1.69;67.65
78896;HTU21D;68284;59.124;37.910;2023-11-19T10:42:15;-1.65;67.68
78896;HTU21D;68284;59.124;37.910;2023-11-19T10:44:43;-1.68;67.82
78896;HTU21D;68284;59.124;37.910;2023-11-19T10:47:13;-1.67;67.85
78896;HTU21D;68284;59.124;37.910;2023-11-19T10:49:40;-1.65;67.88
78896;HTU21D;68284;59.124;37.910;2023-11-19T10:52:09;-1.70;67.85
78896;HTU21D;68284;59.124;37.910;2023-11-19T10:55:16;-1.70;67.84
78896;HTU21D;68284;59.124;37.910;2023-11-19T10:58:15;-1.76;67.96
78896;HTU21D;68284;59.124;37.910;2023-11-19T11:00:57;-1.85;68.05
78896;HTU21D;68284;59.124;37.910;2023-11-19T11:03:41;-1.90;68.18
78896;HTU21D;68284;59.124;37.910;2023-11-19T11:06:44;-1.92;68.27
78896;HTU21D;68284;59.124;37.910;2023-11-19T11:09:14;-1.91;68.22
78896;HTU21D;68284;59.124;37.910;2023-11-19T11:11:50;-1.94;68.04
78896;HTU21D;68284;59.124;37.910;2023-11-19T11:14:22;-2.02;67.91
78896;HTU21D;68284;59.124;37.910;2023-11-19T11:16:57;-2.12;68.07
78896;HTU21D;68284;59.124;37.910;2023-11-19T11:19:26;-2.16;68.10
78896;HTU21D;68284;59.124;37.910;2023-11-19T11:21:55;-2.20;68.15
78896;HTU21D;68284;59.124;37.910;2023-11-19T11:39:34;-2.46;67.93
78896;HTU21D;68284;59.124;37.910;2023-11-19T11:45:38;-2.49;68.11
78896;HTU21D;68284;59.124;37.910;2023-11-19T11:48:15;-2.49;68.22
78896;HTU21D;68284;59.124;37.910;2023-11-19T11:50:57;-2.45;68.24
78896;HTU21D;68284;59.124;37.910;2023-11-19T11:53:26;-2.46;68.12
78896;HTU21D;68284;59.124;37.910;2023-11-19T11:56:01;-2.49;68.10
78896;HTU21D;68284;59.124;37.910;2023-11-19T11:58:36;-2.56;68.15
78896;HTU21D;68284;59.124;37.910;2023-11-19T12:01:06;-2.63;68.24
78896;HTU21D;68284;59.124;37.910;2023-11-19T12:03:42;-2.68;68.46
78896;HTU21D;68284;59.124;37.910;2023-11-19T12:06:27;-2.69;68.71
78896;HTU21D;68284;59.124;37.910;2023-11-19T12:09:15;-2.68;68.75
78896;HTU21D;68284;59.124;37.910;2023-11-19T12:12:39;-2.68;68.81
78896;HTU21D;68284;59.124;37.910;2023-11-19T12:32:42;-2.86;68.49
78896;HTU21D;68284;59.124;37.910;2023-11-19T13:47:56;-2.82;69.16
78896;HTU21D;68284;59.124;37.910;2023-11-19T13:53:46;-2.92;69.19
78896;HTU21D;68284;59.124;37.910;2023-11-19T14:33:04;-2.76;69.42
78896;HTU21D;68284;59.124;37.910;2023-11-19T15:01:16;-3.23;69.24
78896;HTU21D;68284;59.124;37.910;2023-11-19T15:31:23;-3.21;69.26
78896;HTU21D;68284;59.124;37.910;2023-11-19T15:33:49;-3.19;69.28
78896;HTU21D;68284;59.124;37.910;2023-11-19T15:36:16;-3.19;69.24
78896;HTU21D;68284;59.124;37.910;2023-11-19T15:38:44;-3.18;69.22
78896;HTU21D;68284;59.124;37.910;2023-11-19T15:41:11;-3.17;69.19
78896;HTU21D;68284;59.124;37.910;2023-11-19T15:43:37;-3.17;69.14
78896;HTU21D;68284;59.124;37.910;2023-11-19T15:46:10;-3.16;69.08
78896;HTU21D;68284;59.124;37.910;2023-11-19T15:48:47;-3.13;69.04
78896;HTU21D;68284;59.124;37.910;2023-11-19T15:51:18;-3.13;69.02
78896;HTU21D;68284;59.124;37.910;2023-11-19T15:53:48;-3.17;68.94
78896;HTU21D;68284;59.124;37.910;2023-11-19T15:56:26;-3.18;68.95
78896;HTU21D;68284;59.124;37.910;2023-11-19T15:58:58;-3.18;68.95
78896;HTU21D;68284;59.124;37.910;2023-11-19T16:01:26;-3.21;68.98
78896;HTU21D;68284;59.124;37.910;2023-11-19T16:04:17;-3.23;69.03
78896;HTU21D;68284;59.124;37.910;2023-11-19T16:06:46;-3.20;69.06
78896;HTU21D;68284;59.124;37.910;2023-11-19T16:09:17;-3.17;68.97
78896;HTU21D;68284;59.124;37.910;2023-11-19T16:11:50;-3.16;68.91
78896;HTU21D;68284;59.124;37.910;2023-11-19T16:14:25;-3.17;68.87
78896;HTU21D;68284;59.124;37.910;2023-11-19T16:16:56;-3.18;68.89
78896;HTU21D;68284;59.124;37.910;2023-11-19T16:19:27;-3.16;68.86
78896;HTU21D;68284;59.124;37.910;2023-11-19T16:22:09;-3.15;68.81
78896;HTU21D;68284;59.124;37.910;2023-11-19T16:24:50;-3.16;68.81
78896;HTU21D;68284;59.124;37.910;2023-11-19T16:27:34;-3.15;68.71
78896;HTU21D;68284;59.124;37.910;2023-11-19T16:30:01;-3.19;68.49
78896;HTU21D;68284;59.124;37.910;2023-11-19T16:32:53;-3.30;68.25
78896;HTU21D;68284;59.124;37.910;2023-11-19T16:35:56;-3.51;68.12
78896;HTU21D;68284;59.124;37.910;2023-11-19T16:38:45;-3.69;68.36
78896;HTU21D;68284;59.124;37.910;2023-11-19T16:41:41;-3.86;68.46
78896;HTU21D;68284;59.124;37.910;2023-11-19T16:48:47;-4.24;68.60
78896;HTU21D;68284;59.124;37.910;2023-11-19T16:51:28;-4.37;68.55
78896;HTU21D;68284;59.124;37.910;2023-11-19T16:54:03;-4.49;68.62
78896;HTU21D;68284;59.124;37.910;2023-11-19T16:56:57;-4.58;68.65
78896;HTU21D;68284;59.124;37.910;2023-11-19T16:59:29;-4.66;68.73
78896;HTU21D;68284;59.124;37.910;2023-11-19T17:02:28;-4.73;68.77
78896;HTU21D;68284;59.124;37.910;2023-11-19T17:05:01;-4.76;68.83
78896;HTU21D;68284;59.124;37.910;2023-11-19T17:08:05;-4.81;68.90
78896;HTU21D;68284;59.124;37.910;2023-11-19T17:10:55;-4.85;68.92
78896;HTU21D;68284;59.124;37.910;2023-11-19T17:14:26;-4.87;68.94
78896;HTU21D;68284;59.124;37.910;2023-11-19T17:16:55;-4.88;68.94
78896;HTU21D;68284;59.124;37.910;2023-11-19T17:19:37;-4.90;68.95
78896;HTU21D;68284;59.124;37.910;2023-11-19T17:22:39;-4.91;69.03
78896;HTU21D;68284;59.124;37.910;2023-11-19T17:25:42;-4.94;69.08
78896;HTU21D;68284;59.124;37.910;2023-11-19T17:29:21;-4.98;69.12
78896;HTU21D;68284;59.124;37.910;2023-11-19T17:32:07;-4.98;69.16
78896;HTU21D;68284;59.124;37.910;2023-11-19T17:34:43;-5.02;69.26
78896;HTU21D;68284;59.124;37.910;2023-11-19T17:37:19;-5.01;69.36
78896;HTU21D;68284;59.124;37.910;2023-11-19T17:39:53;-5.02;69.45
78896;HTU21D;68284;59.124;37.910;2023-11-19T17:42:33;-5.03;69.55
78896;HTU21D;68284;59.124;37.910;2023-11-19T17:45:01;-5.04;69.61
78896;HTU21D;68284;59.124;37.910;2023-11-19T17:47:29;-5.04;69.70
78896;HTU21D;68284;59.124;37.910;2023-11-19T17:49:57;-5.05;69.86
78896;HTU21D;68284;59.124;37.910;2023-11-19T17:52:27;-5.07;70.06
78896;HTU21D;68284;59.124;37.910;2023-11-19T17:54:55;-5.08;70.22
78896;HTU21D;68284;59.124;37.910;2023-11-19T17:57:22;-5.07;70.37
78896;HTU21D;68284;59.124;37.910;2023-11-19T17:59:48;-5.07;70.50
78896;HTU21D;68284;59.124;37.910;2023-11-19T18:02:17;-5.04;70.67
78896;HTU21D;68284;59.124;37.910;2023-11-19T18:04:47;-5.04;70.84
78896;HTU21D;68284;59.124;37.910;2023-11-19T18:07:18;-5.02;70.97
78896;HTU21D;68284;59.124;37.910;2023-11-19T18:09:53;-5.02;71.05
78896;HTU21D;68284;59.124;37.910;2023-11-19T18:12:33;-5.02;71.18
78896;HTU21D;68284;59.124;37.910;2023-11-19T18:15:45;-5.02;71.19
78896;HTU21D;68284;59.124;37.910;2023-11-19T18:18:39;-5.03;71.10
78896;HTU21D;68284;59.124;37.910;2023-11-19T18:21:49;-5.05;71.18
78896;HTU21D;68284;59.124;37.910;2023-11-19T18:24:25;-5.08;71.32
78896;HTU21D;68284;59.124;37.910;2023-11-19T18:26:54;-5.10;71.46
78896;HTU21D;68284;59.124;37.910;2023-11-19T18:29:33;-5.12;71.59
78896;HTU21D;68284;59.124;37.910;2023-11-19T18:32:01;-5.13;71.72
78896;HTU21D;68284;59.124;37.910;2023-11-19T18:34:31;-5.13;71.84
78896;HTU21D;68284;59.124;37.910;2023-11-19T18:37:15;-5.16;71.98
78896;HTU21D;68284;59.124;37.910;2023-11-19T18:39:50;-5.15;72.09
78896;HTU21D;68284;59.124;37.910;2023-11-19T18:42:38;-5.15;72.18
78896;HTU21D;68284;59.124;37.910;2023-11-19T18:45:18;-5.17;72.30
78896;HTU21D;68284;59.124;37.910;2023-11-19T18:47:57;-5.17;72.38
78896;HTU21D;68284;59.124;37.910;2023-11-19T18:50:42;-5.16;72.47
78896;HTU21D;68284;59.124;37.910;2023-11-19T18:53:55;-5.18;72.56
78896;HTU21D;68284;59.124;37.910;2023-11-19T18:56:26;-5.18;72.54
78896;HTU21D;68284;59.124;37.910;2023-11-19T18:59:06;-5.19;72.62
78896;HTU21D;68284;59.124;37.910;2023-11-19T19:02:16;-5.22;72.76
78896;HTU21D;68284;59.124;37.910;2023-11-19T19:04:50;-5.23;72.67
78896;HTU21D;68284;59.124;37.910;2023-11-19T19:07:20;-5.23;72.77
78896;HTU21D;68284;59.124;37.910;2023-11-19T19:10:10;-5.26;72.83
78896;HTU21D;68284;59.124;37.910;2023-11-19T19:12:47;-5.29;72.90
78896;HTU21D;68284;59.124;37.910;2023-11-19T19:16:10;-5.33;72.97
78896;HTU21D;68284;59.124;37.910;2023-11-19T19:19:30;-5.35;72.98
78896;HTU21D;68284;59.124;37.910;2023-11-19T19:21:59;-5.37;73.03
78896;HTU21D;68284;59.124;37.910;2023-11-19T19:24:35;-5.40;73.09
78896;HTU21D;68284;59.124;37.910;2023-11-19T19:27:19;-5.42;73.17
78896;HTU21D;68284;59.124;37.910;2023-11-19T19:30:14;-5.44;73.19
78896;HTU21D;68284;59.124;37.910;2023-11-19T19:33:11;-5.46;73.35
78896;HTU21D;68284;59.124;37.910;2023-11-19T19:39:20;-5.55;73.30
78896;HTU21D;68284;59.124;37.910;2023-11-19T19:41:52;-5.57;73.32
78896;HTU21D;68284;59.124;37.910;2023-11-19T19:44:23;-5.60;73.38
78896;HTU21D;68284;59.124;37.910;2023-11-19T19:46:56;-5.61;73.45
78896;HTU21D;68284;59.124;37.910;2023-11-19T19:50:04;-5.65;73.57
78896;HTU21D;68284;59.124;37.910;2023-11-19T19:52:57;-5.67;73.49
78896;HTU21D;68284;59.124;37.910;2023-11-19T19:55:44;-5.69;73.51
78896;HTU21D;68284;59.124;37.910;2023-11-19T19:58:25;-5.68;73.54
78896;HTU21D;68284;59.124;37.910;2023-11-19T20:00:53;-5.68;73.60
78896;HTU21D;68284;59.124;37.910;2023-11-19T20:03:23;-5.67;73.64
78896;HTU21D;68284;59.124;37.910;2023-11-19T20:05:58;-5.67;73.67
78896;HTU21D;68284;59.124;37.910;2023-11-19T20:08:35;-5.64;73.66
78896;HTU21D;68284;59.124;37.910;2023-11-19T20:11:17;-5.64;73.67
78896;HTU21D;68284;59.124;37.910;2023-11-19T20:13:50;-5.61;73.66
78896;HTU21D;68284;59.124;37.910;2023-11-19T20:16:22;-5.60;73.65
78896;HTU21D;68284;59.124;37.910;2023-11-19T20:18:49;-5.61;73.64
78896;HTU21D;68284;59.124;37.910;2023-11-19T20:21:20;-5.60;73.65
78896;HTU21D;68284;59.124;37.910;2023-11-19T20:23:51;-5.58;73.67
78896;HTU21D;68284;59.124;37.910;2023-11-19T20:26:20;-5.57;73.65